sensor_id;sensor_type;location;lat;lon;timestamp;P1;durP1;ratioP1;P2;durP2;ratioP2
70126;SDS011;57491;42.694;23.314;2022-07-05T00:01:34;5.63;;;2.55;;
70126;SDS011;57491;42.694;23.314;2022-07-05T00:04:01;3.35;;;2.60;;
70126;SDS011;57491;42.694;23.314;2022-07-05T00:06:28;6.60;;;2.95;;
70126;SDS011;57491;42.694;23.314;2022-07-05T00:08:56;3.28;;;2.55;;
70126;SDS011;57491;42.694;23.314;2022-07-05T00:11:24;6.40;;;2.55;;
70126;SDS011;57491;42.694;23.314;2022-07-05T00:13:51;3.90;;;2.70;;
70126;SDS011;57491;42.694;23.314;2022-07-05T00:16:19;4.43;;;2.53;;
70126;SDS011;57491;42.694;23.314;2022-07-05T00:18:46;3.65;;;2.80;;
70126;SDS011;57491;42.694;23.314;2022-07-05T00:21:13;3.35;;;2.58;;
70126;SDS011;57491;42.694;23.314;2022-07-05T00:23:40;5.05;;;2.38;;
70126;SDS011;57491;42.694;23.314;2022-07-05T00:26:07;4.55;;;2.40;;
70126;SDS011;57491;42.694;23.314;2022-07-05T00:28:36;3.45;;;3.10;;
70126;SDS011;57491;42.694;23.314;2022-07-05T00:31:03;3.20;;;2.45;;
70126;SDS011;57491;42.694;23.314;2022-07-05T00:33:30;3.15;;;2.70;;
70126;SDS011;57491;42.694;23.314;2022-07-05T00:35:57;5.20;;;2.60;;
70126;SDS011;57491;42.694;23.314;2022-07-05T00:38:24;5.18;;;2.50;;
70126;SDS011;57491;42.694;23.314;2022-07-05T00:40:51;3.47;;;2.08;;
70126;SDS011;57491;42.694;23.314;2022-07-05T00:43:19;4.70;;;2.88;;
70126;SDS011;57491;42.694;23.314;2022-07-05T00:45:48;4.65;;;3.30;;
70126;SDS011;57491;42.694;23.314;2022-07-05T00:48:15;5.90;;;3.20;;
70126;SDS011;57491;42.694;23.314;2022-07-05T00:50:42;4.68;;;3.38;;
70126;SDS011;57491;42.694;23.314;2022-07-05T00:53:09;5.53;;;3.05;;
70126;SDS011;57491;42.694;23.314;2022-07-05T00:55:36;4.13;;;2.88;;
70126;SDS011;57491;42.694;23.314;2022-07-05T00:58:03;5.75;;;3.60;;
70126;SDS011;57491;42.694;23.314;2022-07-05T01:00:31;4.18;;;3.20;;
70126;SDS011;57491;42.694;23.314;2022-07-05T01:02:59;5.47;;;3.45;;
70126;SDS011;57491;42.694;23.314;2022-07-05T01:05:27;5.90;;;3.10;;
70126;SDS011;57491;42.694;23.314;2022-07-05T01:10:21;4.05;;;2.90;;
70126;SDS011;57491;42.694;23.314;2022-07-05T01:12:49;3.80;;;2.85;;
70126;SDS011;57491;42.694;23.314;2022-07-05T01:15:16;8.65;;;3.00;;
70126;SDS011;57491;42.694;23.314;2022-07-05T01:17:48;4.15;;;2.85;;
70126;SDS011;57491;42.694;23.314;2022-07-05T01:20:17;4.88;;;3.08;;
70126;SDS011;57491;42.694;23.314;2022-07-05T01:22:53;6.82;;;3.90;;
70126;SDS011;57491;42.694;23.314;2022-07-05T01:25:21;4.32;;;3.33;;
70126;SDS011;57491;42.694;23.314;2022-07-05T01:27:50;4.05;;;3.17;;
70126;SDS011;57491;42.694;23.314;2022-07-05T01:30:18;5.47;;;3.05;;
70126;SDS011;57491;42.694;23.314;2022-07-05T01:32:45;5.82;;;3.13;;
70126;SDS011;57491;42.694;23.314;2022-07-05T01:35:13;7.55;;;3.00;;
70126;SDS011;57491;42.694;23.314;2022-07-05T01:37:46;4.10;;;2.95;;
70126;SDS011;57491;42.694;23.314;2022-07-05T01:40:15;3.30;;;2.25;;
70126;SDS011;57491;42.694;23.314;2022-07-05T01:42:42;3.28;;;2.65;;
70126;SDS011;57491;42.694;23.314;2022-07-05T01:45:10;7.90;;;2.95;;
70126;SDS011;57491;42.694;23.314;2022-07-05T01:50:11;4.28;;;2.60;;
70126;SDS011;57491;42.694;23.314;2022-07-05T01:52:42;3.28;;;2.17;;
70126;SDS011;57491;42.694;23.314;2022-07-05T01:55:12;6.18;;;2.53;;
70126;SDS011;57491;42.694;23.314;2022-07-05T01:57:41;6.65;;;2.30;;
70126;SDS011;57491;42.694;23.314;2022-07-05T02:00:09;3.58;;;2.65;;
70126;SDS011;57491;42.694;23.314;2022-07-05T02:02:39;3.70;;;2.50;;
70126;SDS011;57491;42.694;23.314;2022-07-05T02:05:07;3.53;;;2.50;;
70126;SDS011;57491;42.694;23.314;2022-07-05T02:07:34;3.33;;;2.60;;
70126;SDS011;57491;42.694;23.314;2022-07-05T02:10:01;3.95;;;2.38;;
70126;SDS011;57491;42.694;23.314;2022-07-05T02:12:29;4.05;;;2.47;;
70126;SDS011;57491;42.694;23.314;2022-07-05T02:17:25;3.92;;;2.35;;
70126;SDS011;57491;42.694;23.314;2022-07-05T02:19:52;4.28;;;2.63;;
70126;SDS011;57491;42.694;23.314;2022-07-05T02:22:19;4.68;;;2.30;;
70126;SDS011;57491;42.694;23.314;2022-07-05T02:24:46;4.57;;;3.10;;
70126;SDS011;57491;42.694;23.314;2022-07-05T02:27:13;3.55;;;2.25;;
70126;SDS011;57491;42.694;23.314;2022-07-05T02:29:40;6.78;;;2.75;;
70126;SDS011;57491;42.694;23.314;2022-07-05T02:32:09;3.78;;;2.40;;
70126;SDS011;57491;42.694;23.314;2022-07-05T02:34:36;4.25;;;2.42;;
70126;SDS011;57491;42.694;23.314;2022-07-05T02:37:03;5.25;;;2.38;;
70126;SDS011;57491;42.694;23.314;2022-07-05T02:39:30;7.22;;;3.70;;
70126;SDS011;57491;42.694;23.314;2022-07-05T02:41:57;5.22;;;2.67;;
70126;SDS011;57491;42.694;23.314;2022-07-05T02:44:24;4.78;;;2.42;;
70126;SDS011;57491;42.694;23.314;2022-07-05T02:46:51;5.28;;;2.90;;
70126;SDS011;57491;42.694;23.314;2022-07-05T02:49:20;4.10;;;3.00;;
70126;SDS011;57491;42.694;23.314;2022-07-05T02:51:47;4.22;;;2.58;;
70126;SDS011;57491;42.694;23.314;2022-07-05T02:54:14;6.55;;;2.58;;
70126;SDS011;57491;42.694;23.314;2022-07-05T02:56:41;3.97;;;2.80;;
70126;SDS011;57491;42.694;23.314;2022-07-05T02:59:08;2.47;;;2.03;;
70126;SDS011;57491;42.694;23.314;2022-07-05T03:01:35;3.70;;;2.55;;
70126;SDS011;57491;42.694;23.314;2022-07-05T03:04:03;4.95;;;2.85;;
70126;SDS011;57491;42.694;23.314;2022-07-05T03:06:32;9.10;;;3.55;;
70126;SDS011;57491;42.694;23.314;2022-07-05T03:09:00;6.38;;;3.92;;
70126;SDS011;57491;42.694;23.314;2022-07-05T03:11:27;7.47;;;4.45;;
70126;SDS011;57491;42.694;23.314;2022-07-05T03:13:54;7.50;;;5.22;;
70126;SDS011;57491;42.694;23.314;2022-07-05T03:16:21;10.02;;;5.25;;
70126;SDS011;57491;42.694;23.314;2022-07-05T03:18:48;13.18;;;4.93;;
70126;SDS011;57491;42.694;23.314;2022-07-05T03:21:16;7.90;;;4.93;;
70126;SDS011;57491;42.694;23.314;2022-07-05T03:23:44;8.75;;;5.30;;
70126;SDS011;57491;42.694;23.314;2022-07-05T03:26:11;12.55;;;5.78;;
70126;SDS011;57491;42.694;23.314;2022-07-05T03:28:39;5.65;;;4.82;;
70126;SDS011;57491;42.694;23.314;2022-07-05T03:31:06;7.43;;;4.90;;
70126;SDS011;57491;42.694;23.314;2022-07-05T03:33:33;7.80;;;4.80;;
70126;SDS011;57491;42.694;23.314;2022-07-05T03:36:00;6.22;;;4.78;;
70126;SDS011;57491;42.694;23.314;2022-07-05T03:38:27;9.02;;;4.35;;
70126;SDS011;57491;42.694;23.314;2022-07-05T03:40:56;8.82;;;4.97;;
70126;SDS011;57491;42.694;23.314;2022-07-05T03:43:23;9.88;;;5.85;;
70126;SDS011;57491;42.694;23.314;2022-07-05T03:45:50;6.00;;;4.25;;
70126;SDS011;57491;42.694;23.314;2022-07-05T03:48:19;12.05;;;4.63;;
70126;SDS011;57491;42.694;23.314;2022-07-05T03:50:46;12.43;;;4.90;;
70126;SDS011;57491;42.694;23.314;2022-07-05T03:53:14;7.30;;;4.82;;
70126;SDS011;57491;42.694;23.314;2022-07-05T03:55:41;7.05;;;4.32;;
70126;SDS011;57491;42.694;23.314;2022-07-05T03:58:09;8.05;;;5.20;;
70126;SDS011;57491;42.694;23.314;2022-07-05T04:00:36;5.85;;;4.05;;
70126;SDS011;57491;42.694;23.314;2022-07-05T04:03:04;7.95;;;4.90;;
70126;SDS011;57491;42.694;23.314;2022-07-05T04:05:31;11.55;;;5.40;;
70126;SDS011;57491;42.694;23.314;2022-07-05T04:07:58;6.60;;;4.63;;
70126;SDS011;57491;42.694;23.314;2022-07-05T04:10:25;15.18;;;5.20;;
70126;SDS011;57491;42.694;23.314;2022-07-05T04:15:21;14.20;;;5.10;;
70126;SDS011;57491;42.694;23.314;2022-07-05T04:17:48;16.95;;;5.93;;
70126;SDS011;57491;42.694;23.314;2022-07-05T04:20:17;16.13;;;5.55;;
70126;SDS011;57491;42.694;23.314;2022-07-05T04:22:45;12.43;;;4.97;;
70126;SDS011;57491;42.694;23.314;2022-07-05T04:25:13;12.73;;;5.15;;
70126;SDS011;57491;42.694;23.314;2022-07-05T04:27:43;17.70;;;6.18;;
70126;SDS011;57491;42.694;23.314;2022-07-05T04:30:10;8.13;;;5.07;;
70126;SDS011;57491;42.694;23.314;2022-07-05T04:32:40;10.60;;;6.35;;
70126;SDS011;57491;42.694;23.314;2022-07-05T04:35:07;8.10;;;4.93;;
70126;SDS011;57491;42.694;23.314;2022-07-05T04:37:35;6.35;;;5.63;;
70126;SDS011;57491;42.694;23.314;2022-07-05T04:40:03;5.72;;;5.00;;
70126;SDS011;57491;42.694;23.314;2022-07-05T04:42:31;7.07;;;5.50;;
70126;SDS011;57491;42.694;23.314;2022-07-05T04:44:58;9.30;;;5.35;;
70126;SDS011;57491;42.694;23.314;2022-07-05T04:49:54;7.72;;;4.80;;
70126;SDS011;57491;42.694;23.314;2022-07-05T04:52:22;6.63;;;4.90;;
70126;SDS011;57491;42.694;23.314;2022-07-05T04:54:50;8.98;;;6.05;;
70126;SDS011;57491;42.694;23.314;2022-07-05T04:57:17;6.53;;;5.63;;
70126;SDS011;57491;42.694;23.314;2022-07-05T04:59:44;8.45;;;5.85;;
70126;SDS011;57491;42.694;23.314;2022-07-05T05:02:11;11.05;;;7.00;;
70126;SDS011;57491;42.694;23.314;2022-07-05T05:04:38;8.10;;;5.57;;
70126;SDS011;57491;42.694;23.314;2022-07-05T05:07:07;8.18;;;5.43;;
70126;SDS011;57491;42.694;23.314;2022-07-05T05:09:35;11.35;;;5.90;;
70126;SDS011;57491;42.694;23.314;2022-07-05T05:12:03;9.60;;;7.00;;
70126;SDS011;57491;42.694;23.314;2022-07-05T05:14:30;8.80;;;5.50;;
70126;SDS011;57491;42.694;23.314;2022-07-05T05:16:57;9.80;;;5.60;;
70126;SDS011;57491;42.694;23.314;2022-07-05T05:19:24;14.32;;;6.40;;
70126;SDS011;57491;42.694;23.314;2022-07-05T05:21:52;9.65;;;5.47;;
70126;SDS011;57491;42.694;23.314;2022-07-05T05:24:20;11.98;;;7.30;;
70126;SDS011;57491;42.694;23.314;2022-07-05T05:26:47;11.18;;;5.45;;
70126;SDS011;57491;42.694;23.314;2022-07-05T05:29:16;12.60;;;5.20;;
70126;SDS011;57491;42.694;23.314;2022-07-05T05:31:43;10.35;;;6.38;;
70126;SDS011;57491;42.694;23.314;2022-07-05T05:34:10;9.77;;;6.82;;
70126;SDS011;57491;42.694;23.314;2022-07-05T05:36:37;13.13;;;7.30;;
70126;SDS011;57491;42.694;23.314;2022-07-05T05:39:04;16.33;;;6.32;;
70126;SDS011;57491;42.694;23.314;2022-07-05T05:41:33;9.82;;;5.80;;
70126;SDS011;57491;42.694;23.314;2022-07-05T05:44:00;7.00;;;5.43;;
70126;SDS011;57491;42.694;23.314;2022-07-05T05:46:28;13.38;;;6.00;;
70126;SDS011;57491;42.694;23.314;2022-07-05T05:48:55;9.73;;;5.45;;
70126;SDS011;57491;42.694;23.314;2022-07-05T05:51:22;10.75;;;5.78;;
70126;SDS011;57491;42.694;23.314;2022-07-05T05:53:49;16.80;;;6.03;;
70126;SDS011;57491;42.694;23.314;2022-07-05T05:56:16;9.95;;;5.22;;
70126;SDS011;57491;42.694;23.314;2022-07-05T05:58:44;8.07;;;5.05;;
70126;SDS011;57491;42.694;23.314;2022-07-05T06:01:11;13.07;;;6.63;;
70126;SDS011;57491;42.694;23.314;2022-07-05T06:03:38;10.35;;;6.55;;
70126;SDS011;57491;42.694;23.314;2022-07-05T06:06:06;17.63;;;6.82;;
70126;SDS011;57491;42.694;23.314;2022-07-05T06:08:33;12.13;;;5.55;;
70126;SDS011;57491;42.694;23.314;2022-07-05T06:11:02;12.48;;;6.78;;
70126;SDS011;57491;42.694;23.314;2022-07-05T06:13:30;13.40;;;6.43;;
70126;SDS011;57491;42.694;23.314;2022-07-05T06:15:59;10.63;;;5.78;;
70126;SDS011;57491;42.694;23.314;2022-07-05T06:18:29;11.43;;;6.93;;
70126;SDS011;57491;42.694;23.314;2022-07-05T06:20:56;9.30;;;5.97;;
70126;SDS011;57491;42.694;23.314;2022-07-05T06:23:23;11.63;;;6.55;;
70126;SDS011;57491;42.694;23.314;2022-07-05T06:25:50;12.70;;;6.68;;
70126;SDS011;57491;42.694;23.314;2022-07-05T06:28:17;15.00;;;6.07;;
70126;SDS011;57491;42.694;23.314;2022-07-05T06:33:13;10.57;;;5.60;;
70126;SDS011;57491;42.694;23.314;2022-07-05T06:35:40;11.73;;;5.55;;
70126;SDS011;57491;42.694;23.314;2022-07-05T06:38:08;9.60;;;5.63;;
70126;SDS011;57491;42.694;23.314;2022-07-05T06:40:37;11.23;;;5.75;;
70126;SDS011;57491;42.694;23.314;2022-07-05T06:43:07;10.60;;;5.65;;
70126;SDS011;57491;42.694;23.314;2022-07-05T06:45:36;7.10;;;5.32;;
70126;SDS011;57491;42.694;23.314;2022-07-05T06:48:04;11.32;;;5.60;;
70126;SDS011;57491;42.694;23.314;2022-07-05T06:50:35;7.90;;;5.50;;
70126;SDS011;57491;42.694;23.314;2022-07-05T06:53:03;8.25;;;4.97;;
70126;SDS011;57491;42.694;23.314;2022-07-05T06:55:31;7.03;;;4.80;;
70126;SDS011;57491;42.694;23.314;2022-07-05T06:57:59;11.82;;;5.30;;
70126;SDS011;57491;42.694;23.314;2022-07-05T07:00:28;10.45;;;5.90;;
70126;SDS011;57491;42.694;23.314;2022-07-05T07:02:56;10.75;;;5.30;;
70126;SDS011;57491;42.694;23.314;2022-07-05T07:05:24;7.90;;;5.15;;
70126;SDS011;57491;42.694;23.314;2022-07-05T07:07:53;8.23;;;5.55;;
70126;SDS011;57491;42.694;23.314;2022-07-05T07:10:38;9.48;;;5.28;;
70126;SDS011;57491;42.694;23.314;2022-07-05T07:13:05;7.72;;;5.07;;
70126;SDS011;57491;42.694;23.314;2022-07-05T07:18:00;14.63;;;5.47;;
70126;SDS011;57491;42.694;23.314;2022-07-05T07:20:27;5.88;;;4.82;;
70126;SDS011;57491;42.694;23.314;2022-07-05T07:25:23;6.97;;;4.93;;
70126;SDS011;57491;42.694;23.314;2022-07-05T07:27:53;9.35;;;4.68;;
70126;SDS011;57491;42.694;23.314;2022-07-05T07:30:21;8.57;;;4.80;;
70126;SDS011;57491;42.694;23.314;2022-07-05T07:32:50;7.68;;;4.95;;
70126;SDS011;57491;42.694;23.314;2022-07-05T07:35:18;9.13;;;5.40;;
70126;SDS011;57491;42.694;23.314;2022-07-05T07:37:46;11.32;;;4.72;;
70126;SDS011;57491;42.694;23.314;2022-07-05T07:40:15;11.20;;;5.35;;
70126;SDS011;57491;42.694;23.314;2022-07-05T07:42:43;10.70;;;6.18;;
70126;SDS011;57491;42.694;23.314;2022-07-05T07:45:10;12.50;;;5.05;;
70126;SDS011;57491;42.694;23.314;2022-07-05T07:50:05;12.80;;;5.72;;
70126;SDS011;57491;42.694;23.314;2022-07-05T07:52:33;12.82;;;5.40;;
70126;SDS011;57491;42.694;23.314;2022-07-05T07:55:00;10.00;;;5.38;;
70126;SDS011;57491;42.694;23.314;2022-07-05T07:57:28;12.48;;;6.45;;
70126;SDS011;57491;42.694;23.314;2022-07-05T07:59:56;7.10;;;5.43;;
70126;SDS011;57491;42.694;23.314;2022-07-05T08:04:50;12.43;;;6.40;;
70126;SDS011;57491;42.694;23.314;2022-07-05T08:07:18;18.50;;;6.30;;
70126;SDS011;57491;42.694;23.314;2022-07-05T08:09:45;11.60;;;7.28;;
70126;SDS011;57491;42.694;23.314;2022-07-05T08:12:13;14.95;;;6.03;;
70126;SDS011;57491;42.694;23.314;2022-07-05T08:14:41;10.23;;;5.72;;
70126;SDS011;57491;42.694;23.314;2022-07-05T08:17:09;8.10;;;5.57;;
70126;SDS011;57491;42.694;23.314;2022-07-05T08:19:36;6.25;;;5.43;;
70126;SDS011;57491;42.694;23.314;2022-07-05T08:22:20;14.95;;;6.28;;
70126;SDS011;57491;42.694;23.314;2022-07-05T08:27:15;12.27;;;5.75;;
70126;SDS011;57491;42.694;23.314;2022-07-05T08:29:43;11.68;;;5.75;;
70126;SDS011;57491;42.694;23.314;2022-07-05T08:32:11;12.73;;;5.93;;
70126;SDS011;57491;42.694;23.314;2022-07-05T08:34:38;8.57;;;5.85;;
70126;SDS011;57491;42.694;23.314;2022-07-05T08:37:05;12.18;;;6.05;;
70126;SDS011;57491;42.694;23.314;2022-07-05T08:39:32;8.00;;;5.63;;
70126;SDS011;57491;42.694;23.314;2022-07-05T08:42:00;17.75;;;7.05;;
70126;SDS011;57491;42.694;23.314;2022-07-05T08:44:28;12.07;;;7.30;;
70126;SDS011;57491;42.694;23.314;2022-07-05T08:47:00;9.55;;;6.40;;
70126;SDS011;57491;42.694;23.314;2022-07-05T08:49:30;12.38;;;6.72;;
70126;SDS011;57491;42.694;23.314;2022-07-05T08:51:58;7.13;;;6.18;;
70126;SDS011;57491;42.694;23.314;2022-07-05T08:54:30;8.85;;;6.45;;
70126;SDS011;57491;42.694;23.314;2022-07-05T08:56:57;6.93;;;5.80;;
70126;SDS011;57491;42.694;23.314;2022-07-05T08:59:24;10.25;;;5.80;;
70126;SDS011;57491;42.694;23.314;2022-07-05T09:01:51;7.18;;;5.53;;
70126;SDS011;57491;42.694;23.314;2022-07-05T09:04:21;15.88;;;7.65;;
70126;SDS011;57491;42.694;23.314;2022-07-05T09:06:50;9.75;;;6.30;;
70126;SDS011;57491;42.694;23.314;2022-07-05T09:09:21;7.57;;;5.85;;
70126;SDS011;57491;42.694;23.314;2022-07-05T09:11:49;11.43;;;6.43;;
70126;SDS011;57491;42.694;23.314;2022-07-05T09:14:18;10.25;;;6.57;;
70126;SDS011;57491;42.694;23.314;2022-07-05T09:16:46;10.18;;;6.32;;
70126;SDS011;57491;42.694;23.314;2022-07-05T09:19:13;10.30;;;6.15;;
70126;SDS011;57491;42.694;23.314;2022-07-05T09:21:42;10.95;;;6.38;;
70126;SDS011;57491;42.694;23.314;2022-07-05T09:24:10;10.57;;;5.63;;
70126;SDS011;57491;42.694;23.314;2022-07-05T09:26:38;13.60;;;6.90;;
70126;SDS011;57491;42.694;23.314;2022-07-05T09:29:07;8.95;;;6.03;;
70126;SDS011;57491;42.694;23.314;2022-07-05T09:31:36;9.88;;;6.18;;
70126;SDS011;57491;42.694;23.314;2022-07-05T09:34:04;11.70;;;7.03;;
70126;SDS011;57491;42.694;23.314;2022-07-05T09:36:52;8.32;;;5.95;;
70126;SDS011;57491;42.694;23.314;2022-07-05T09:39:39;10.88;;;6.68;;
70126;SDS011;57491;42.694;23.314;2022-07-05T09:42:16;9.27;;;6.68;;
70126;SDS011;57491;42.694;23.314;2022-07-05T09:44:45;9.52;;;6.57;;
70126;SDS011;57491;42.694;23.314;2022-07-05T09:47:14;12.68;;;7.18;;
70126;SDS011;57491;42.694;23.314;2022-07-05T09:49:42;7.45;;;6.65;;
70126;SDS011;57491;42.694;23.314;2022-07-05T09:52:12;8.82;;;7.05;;
70126;SDS011;57491;42.694;23.314;2022-07-05T09:55:02;10.90;;;7.50;;
70126;SDS011;57491;42.694;23.314;2022-07-05T09:57:31;7.57;;;6.35;;
70126;SDS011;57491;42.694;23.314;2022-07-05T10:00:01;7.78;;;6.72;;
70126;SDS011;57491;42.694;23.314;2022-07-05T10:02:37;13.50;;;7.53;;
70126;SDS011;57491;42.694;23.314;2022-07-05T10:05:08;9.32;;;6.55;;
70126;SDS011;57491;42.694;23.314;2022-07-05T10:07:39;6.57;;;5.97;;
70126;SDS011;57491;42.694;23.314;2022-07-05T10:10:07;13.25;;;6.80;;
70126;SDS011;57491;42.694;23.314;2022-07-05T10:12:36;7.43;;;6.40;;
70126;SDS011;57491;42.694;23.314;2022-07-05T10:15:04;9.07;;;7.07;;
70126;SDS011;57491;42.694;23.314;2022-07-05T10:17:35;8.35;;;6.05;;
70126;SDS011;57491;42.694;23.314;2022-07-05T10:20:04;9.88;;;7.07;;
70126;SDS011;57491;42.694;23.314;2022-07-05T10:22:38;9.98;;;6.50;;
70126;SDS011;57491;42.694;23.314;2022-07-05T10:25:07;7.57;;;6.70;;
70126;SDS011;57491;42.694;23.314;2022-07-05T10:27:35;11.43;;;8.15;;
70126;SDS011;57491;42.694;23.314;2022-07-05T10:30:03;9.85;;;6.78;;
70126;SDS011;57491;42.694;23.314;2022-07-05T10:32:36;13.73;;;6.68;;
70126;SDS011;57491;42.694;23.314;2022-07-05T10:35:13;11.45;;;7.00;;
70126;SDS011;57491;42.694;23.314;2022-07-05T10:37:41;21.75;;;8.40;;
70126;SDS011;57491;42.694;23.314;2022-07-05T10:40:10;8.18;;;7.38;;
70126;SDS011;57491;42.694;23.314;2022-07-05T10:42:39;10.82;;;6.72;;
70126;SDS011;57491;42.694;23.314;2022-07-05T10:45:26;13.48;;;6.85;;
70126;SDS011;57491;42.694;23.314;2022-07-05T10:50:45;7.55;;;6.50;;
70126;SDS011;57491;42.694;23.314;2022-07-05T10:53:17;9.05;;;6.97;;
70126;SDS011;57491;42.694;23.314;2022-07-05T10:55:47;8.07;;;7.05;;
70126;SDS011;57491;42.694;23.314;2022-07-05T10:58:19;8.30;;;6.80;;
70126;SDS011;57491;42.694;23.314;2022-07-05T11:00:48;8.85;;;6.88;;
70126;SDS011;57491;42.694;23.314;2022-07-05T11:03:35;9.23;;;6.68;;
70126;SDS011;57491;42.694;23.314;2022-07-05T11:06:03;9.75;;;7.22;;
70126;SDS011;57491;42.694;23.314;2022-07-05T11:08:33;8.15;;;6.72;;
70126;SDS011;57491;42.694;23.314;2022-07-05T11:11:39;8.25;;;7.00;;
70126;SDS011;57491;42.694;23.314;2022-07-05T11:14:28;7.00;;;6.30;;
70126;SDS011;57491;42.694;23.314;2022-07-05T11:17:09;7.93;;;7.18;;
70126;SDS011;57491;42.694;23.314;2022-07-05T11:22:38;7.50;;;6.68;;
70126;SDS011;57491;42.694;23.314;2022-07-05T11:25:08;7.63;;;6.60;;
70126;SDS011;57491;42.694;23.314;2022-07-05T11:30:43;9.55;;;6.80;;
70126;SDS011;57491;42.694;23.314;2022-07-05T11:36:06;7.30;;;6.53;;
70126;SDS011;57491;42.694;23.314;2022-07-05T11:41:47;9.27;;;6.40;;
70126;SDS011;57491;42.694;23.314;2022-07-05T11:44:16;9.05;;;7.38;;
70126;SDS011;57491;42.694;23.314;2022-07-05T11:46:43;8.52;;;7.13;;
70126;SDS011;57491;42.694;23.314;2022-07-05T11:49:11;8.57;;;7.70;;
70126;SDS011;57491;42.694;23.314;2022-07-05T11:51:38;8.23;;;7.55;;
70126;SDS011;57491;42.694;23.314;2022-07-05T11:54:07;9.05;;;7.40;;
70126;SDS011;57491;42.694;23.314;2022-07-05T11:56:36;10.38;;;7.03;;
70126;SDS011;57491;42.694;23.314;2022-07-05T11:59:17;9.43;;;7.70;;
70126;SDS011;57491;42.694;23.314;2022-07-05T12:01:45;7.47;;;6.38;;
70126;SDS011;57491;42.694;23.314;2022-07-05T12:04:20;9.52;;;7.53;;
70126;SDS011;57491;42.694;23.314;2022-07-05T12:06:47;8.77;;;7.20;;
70126;SDS011;57491;42.694;23.314;2022-07-05T12:09:21;9.23;;;6.82;;
70126;SDS011;57491;42.694;23.314;2022-07-05T12:11:49;7.70;;;7.00;;
70126;SDS011;57491;42.694;23.314;2022-07-05T12:14:35;7.97;;;6.80;;
70126;SDS011;57491;42.694;23.314;2022-07-05T12:17:12;9.70;;;8.55;;
70126;SDS011;57491;42.694;23.314;2022-07-05T12:19:40;7.78;;;7.05;;
70126;SDS011;57491;42.694;23.314;2022-07-05T12:22:07;13.30;;;7.55;;
70126;SDS011;57491;42.694;23.314;2022-07-05T12:24:34;10.40;;;7.65;;
70126;SDS011;57491;42.694;23.314;2022-07-05T12:27:02;7.57;;;6.88;;
70126;SDS011;57491;42.694;23.314;2022-07-05T12:29:30;7.28;;;6.57;;
70126;SDS011;57491;42.694;23.314;2022-07-05T12:31:58;7.57;;;6.78;;
70126;SDS011;57491;42.694;23.314;2022-07-05T12:34:27;7.82;;;6.70;;
70126;SDS011;57491;42.694;23.314;2022-07-05T12:36:55;7.95;;;7.15;;
70126;SDS011;57491;42.694;23.314;2022-07-05T12:39:23;8.52;;;7.38;;
70126;SDS011;57491;42.694;23.314;2022-07-05T12:41:51;8.45;;;7.07;;
70126;SDS011;57491;42.694;23.314;2022-07-05T12:44:21;9.52;;;7.30;;
70126;SDS011;57491;42.694;23.314;2022-07-05T12:46:49;10.05;;;7.38;;
70126;SDS011;57491;42.694;23.314;2022-07-05T12:49:18;7.43;;;6.72;;
70126;SDS011;57491;42.694;23.314;2022-07-05T12:51:45;14.52;;;6.85;;
70126;SDS011;57491;42.694;23.314;2022-07-05T12:54:22;8.82;;;6.97;;
70126;SDS011;57491;42.694;23.314;2022-07-05T12:57:07;8.75;;;7.15;;
70126;SDS011;57491;42.694;23.314;2022-07-05T12:59:58;7.65;;;6.95;;
70126;SDS011;57491;42.694;23.314;2022-07-05T13:02:34;8.40;;;7.45;;
70126;SDS011;57491;42.694;23.314;2022-07-05T13:05:07;9.68;;;6.60;;
70126;SDS011;57491;42.694;23.314;2022-07-05T13:07:40;10.90;;;6.85;;
70126;SDS011;57491;42.694;23.314;2022-07-05T13:10:15;8.70;;;7.15;;
70126;SDS011;57491;42.694;23.314;2022-07-05T13:12:43;11.07;;;7.18;;
70126;SDS011;57491;42.694;23.314;2022-07-05T13:15:11;11.20;;;7.10;;
70126;SDS011;57491;42.694;23.314;2022-07-05T13:17:38;7.75;;;6.93;;
70126;SDS011;57491;42.694;23.314;2022-07-05T13:20:08;9.65;;;7.10;;
70126;SDS011;57491;42.694;23.314;2022-07-05T13:22:36;7.35;;;6.65;;
70126;SDS011;57491;42.694;23.314;2022-07-05T13:25:03;10.57;;;7.57;;
70126;SDS011;57491;42.694;23.314;2022-07-05T13:27:31;13.15;;;7.53;;
70126;SDS011;57491;42.694;23.314;2022-07-05T13:29:59;9.50;;;7.32;;
70126;SDS011;57491;42.694;23.314;2022-07-05T13:34:53;9.05;;;6.95;;
70126;SDS011;57491;42.694;23.314;2022-07-05T13:39:48;8.30;;;7.22;;
70126;SDS011;57491;42.694;23.314;2022-07-05T13:42:16;8.40;;;6.30;;
70126;SDS011;57491;42.694;23.314;2022-07-05T13:49:37;8.50;;;7.60;;
70126;SDS011;57491;42.694;23.314;2022-07-05T13:52:06;8.27;;;7.38;;
70126;SDS011;57491;42.694;23.314;2022-07-05T13:54:34;8.20;;;6.93;;
70126;SDS011;57491;42.694;23.314;2022-07-05T13:57:02;9.65;;;6.80;;
70126;SDS011;57491;42.694;23.314;2022-07-05T13:59:29;10.13;;;6.88;;
70126;SDS011;57491;42.694;23.314;2022-07-05T14:01:56;10.50;;;7.03;;
70126;SDS011;57491;42.694;23.314;2022-07-05T14:06:55;9.07;;;6.55;;
70126;SDS011;57491;42.694;23.314;2022-07-05T14:09:22;8.27;;;6.78;;
70126;SDS011;57491;42.694;23.314;2022-07-05T14:11:52;7.40;;;6.63;;
70126;SDS011;57491;42.694;23.314;2022-07-05T14:14:19;7.22;;;6.57;;
70126;SDS011;57491;42.694;23.314;2022-07-05T14:24:10;11.18;;;7.15;;
70126;SDS011;57491;42.694;23.314;2022-07-05T14:26:38;7.55;;;6.85;;
70126;SDS011;57491;42.694;23.314;2022-07-05T14:29:07;8.73;;;7.18;;
70126;SDS011;57491;42.694;23.314;2022-07-05T14:31:35;10.55;;;6.32;;
70126;SDS011;57491;42.694;23.314;2022-07-05T14:34:02;9.05;;;7.70;;
70126;SDS011;57491;42.694;23.314;2022-07-05T14:36:29;7.53;;;6.78;;
70126;SDS011;57491;42.694;23.314;2022-07-05T14:38:56;10.95;;;7.63;;
70126;SDS011;57491;42.694;23.314;2022-07-05T14:41:26;9.77;;;8.20;;
70126;SDS011;57491;42.694;23.314;2022-07-05T14:43:54;9.95;;;7.13;;
70126;SDS011;57491;42.694;23.314;2022-07-05T14:46:23;7.95;;;6.80;;
70126;SDS011;57491;42.694;23.314;2022-07-05T14:48:50;7.70;;;7.00;;
70126;SDS011;57491;42.694;23.314;2022-07-05T14:53:45;8.15;;;6.70;;
70126;SDS011;57491;42.694;23.314;2022-07-05T14:56:12;7.50;;;6.80;;
70126;SDS011;57491;42.694;23.314;2022-07-05T14:58:39;9.13;;;6.70;;
70126;SDS011;57491;42.694;23.314;2022-07-05T15:01:09;7.63;;;6.47;;
70126;SDS011;57491;42.694;23.314;2022-07-05T15:06:06;8.45;;;6.50;;
70126;SDS011;57491;42.694;23.314;2022-07-05T15:08:34;9.02;;;7.38;;
70126;SDS011;57491;42.694;23.314;2022-07-05T15:11:02;7.88;;;6.78;;
70126;SDS011;57491;42.694;23.314;2022-07-05T15:13:29;8.20;;;6.65;;
70126;SDS011;57491;42.694;23.314;2022-07-05T15:20:52;6.70;;;6.00;;
70126;SDS011;57491;42.694;23.314;2022-07-05T15:23:20;8.10;;;6.38;;
70126;SDS011;57491;42.694;23.314;2022-07-05T15:25:47;8.30;;;6.40;;
70126;SDS011;57491;42.694;23.314;2022-07-05T15:28:14;7.00;;;6.40;;
70126;SDS011;57491;42.694;23.314;2022-07-05T15:33:08;10.05;;;7.35;;
70126;SDS011;57491;42.694;23.314;2022-07-05T15:35:35;11.15;;;7.10;;
70126;SDS011;57491;42.694;23.314;2022-07-05T15:38:03;8.63;;;7.18;;
70126;SDS011;57491;42.694;23.314;2022-07-05T15:40:30;9.77;;;6.85;;
70126;SDS011;57491;42.694;23.314;2022-07-05T15:42:58;10.13;;;7.10;;
70126;SDS011;57491;42.694;23.314;2022-07-05T15:45:25;7.65;;;6.63;;
70126;SDS011;57491;42.694;23.314;2022-07-05T15:47:52;7.03;;;6.28;;
70126;SDS011;57491;42.694;23.314;2022-07-05T15:50:19;11.45;;;7.28;;
70126;SDS011;57491;42.694;23.314;2022-07-05T15:52:46;9.90;;;6.50;;
70126;SDS011;57491;42.694;23.314;2022-07-05T15:55:14;10.10;;;6.32;;